Time,TemperatureF,DewpointF,PressureIn,WindDirection,WindDirectionDegrees,WindSpeedMPH,WindSpeedGustMPH,Humidity,HourlyPrecipIn,Conditions,Clouds,dailyrainin,SolarRadiationWatts/m^2,SoftwareType,DateUTC
2013-09-03 00:01:00,64.5,47.0,29.76,NNE,30,0.0,0.0,53,0.00,,,0.00,0,Wunderground v.1.15,2013-09-03 06:01:00,
2013-09-03 00:06:00,64.2,47.2,29.76,NNE,30,0.0,0.0,54,0.00,,,0.00,0,Wunderground v.1.15,2013-09-03 06:06:00,
2013-09-03 00:12:00,63.9,47.4,29.76,NNE,31,0.0,0.0,55,0.00,,,0.00,0,Wunderground v.1.15,2013-09-03 06:12:00,
2013-09-03 00:17:00,63.5,47.0,29.76,NNE,32,0.0,0.0,55,0.00,,,0.00,0,Wunderground v.1.15,2013-09-03 06:17:00,
2013-09-03 00:23:00,63.1,47.1,29.76,NNE,31,0.0,0.0,56,0.00,,,0.00,0,Wunderground v.1.15,2013-09-03 06:23:00,
2013-09-03 00:29:00,62.8,46.9,29.76,NNE,31,0.0,0.0,56,0.00,,,0.00,0,Wunderground v.1.15,2013-09-03 06:29:00,
2013-09-03 00:34:00,62.6,47.1,29.76,NNE,31,0.0,0.0,57,0.00,,,0.00,0,Wunderground v.1.15,2013-09-03 06:34:00,
2013-09-03 00:39:00,62.4,47.0,29.76,NNE,30,0.0,0.0,57,0.00,,,0.00,0,Wunderground v.1.15,2013-09-03 06:39:00,
2013-09-03 00:45:00,62.0,47.0,29.77,NNE,31,0.0,0.0,58,0.00,,,0.00,0,Wunderground v.1.15,2013-09-03 06:45:00,
2013-09-03 00:50:00,61.7,46.8,29.77,NNE,31,0.0,0.0,58,0.00,,,0.00,0,Wunderground v.1.15,2013-09-03 06:50:00,
2013-09-03 00:55:00,61.4,46.5,29.77,NNE,31,0.0,0.0,58,0.00,,,0.00,0,Wunderground v.1.15,2013-09-03 06:55:00,
2013-09-03 01:01:00,61.0,46.1,29.77,NNE,31,0.0,0.0,58,0.00,,,0.00,0,Wunderground v.1.15,2013-09-03 07:01:00,
2013-09-03 01:06:00,60.8,47.3,29.77,NNE,32,0.0,0.0,61,0.00,,,0.00,0,Wunderground v.1.15,2013-09-03 07:06:00,
2013-09-03 01:12:00,60.2,48.0,29.77,NNE,30,0.0,0.0,64,0.00,,,0.00,0,Wunderground v.1.15,2013-09-03 07:12:00,
2013-09-03 01:17:00,59.6,47.8,29.78,NNE,31,0.0,0.0,65,0.00,,,0.00,0,Wunderground v.1.15,2013-09-03 07:17:00,
2013-09-03 01:23:00,59.0,46.4,29.78,NNE,32,0.0,0.0,63,0.00,,,0.00,0,Wunderground v.1.15,2013-09-03 07:23:00,
2013-09-03 01:29:00,59.0,46.8,29.78,NNE,30,0.0,0.0,64,0.00,,,0.00,0,Wunderground v.1.15,2013-09-03 07:29:00,
2013-09-03 01:35:00,59.0,47.7,29.78,NE,55,0.0,0.0,66,0.00,,,0.00,0,Wunderground v.1.15,2013-09-03 07:35:00,
2013-09-03 01:41:00,59.0,47.7,29.78,East,94,0.0,0.0,66,0.00,,,0.00,0,Wunderground v.1.15,2013-09-03 07:41:00,
2013-09-03 01:46:00,59.0,48.1,29.79,ESE,109,0.0,0.0,67,0.00,,,0.00,0,Wunderground v.1.15,2013-09-03 07:46:00,
2013-09-03 01:51:00,59.0,48.1,29.79,ESE,109,0.0,0.0,67,0.00,,,0.00,0,Wunderground v.1.15,2013-09-03 07:51:00,
2013-09-03 01:57:00,59.0,47.7,29.79,ESE,110,0.0,0.0,66,0.00,,,0.00,0,Wunderground v.1.15,2013-09-03 07:57:00,
2013-09-03 02:02:00,59.0,48.4,29.79,ESE,110,0.0,0.0,68,0.00,,,0.00,0,Wunderground v.1.15,2013-09-03 08:02:00,
2013-09-03 02:07:00,59.0,48.1,29.79,ESE,110,0.0,0.0,67,0.00,,,0.00,0,Wunderground v.1.15,2013-09-03 08:07:00,
2013-09-03 02:12:00,59.0,48.8,29.79,ESE,110,0.0,0.0,69,0.00,,,0.00,0,Wunderground v.1.15,2013-09-03 08:12:00,
2013-09-03 02:17:00,58.9,48.7,29.79,ESE,110,0.0,0.0,69,0.00,,,0.00,0,Wunderground v.1.15,2013-09-03 08:17:00,
2013-09-03 02:22:00,58.2,48.5,29.79,ESE,111,3.0,3.0,70,0.00,,,0.00,0,Wunderground v.1.15,2013-09-03 08:22:00,
2013-09-03 02:27:00,58.2,48.8,29.79,ESE,114,0.0,3.0,71,0.00,,,0.00,0,Wunderground v.1.15,2013-09-03 08:27:00,
2013-09-03 02:32:00,58.1,48.7,29.80,ESE,114,0.0,0.0,71,0.00,,,0.00,0,Wunderground v.1.15,2013-09-03 08:32:00,
2013-09-03 02:37:00,58.1,48.7,29.80,ESE,115,0.0,0.0,71,0.00,,,0.00,0,Wunderground v.1.15,2013-09-03 08:37:00,
2013-09-03 02:42:00,58.1,48.4,29.80,ESE,121,0.0,3.0,70,0.00,,,0.00,0,Wunderground v.1.15,2013-09-03 08:42:00,
2013-09-03 02:47:00,58.1,48.7,29.80,ESE,121,0.0,3.0,71,0.00,,,0.00,0,Wunderground v.1.15,2013-09-03 08:47:00,
2013-09-03 02:52:00,58.2,48.5,29.80,ESE,121,0.0,1.0,70,0.00,,,0.00,0,Wunderground v.1.15,2013-09-03 08:52:00,
2013-09-03 02:57:00,58.4,48.7,29.80,ESE,122,0.0,3.0,70,0.00,,,0.00,0,Wunderground v.1.15,2013-09-03 08:57:00,
2013-09-03 03:02:00,58.4,48.7,29.80,SE,126,0.0,0.0,70,0.00,,,0.00,0,Wunderground v.1.15,2013-09-03 09:02:00,
2013-09-03 03:07:00,58.4,48.7,29.80,SE,133,0.0,4.0,70,0.00,,,0.00,0,Wunderground v.1.15,2013-09-03 09:07:00,
2013-09-03 03:12:00,58.3,48.6,29.80,SE,133,0.0,0.0,70,0.00,,,0.00,0,Wunderground v.1.15,2013-09-03 09:12:00,
2013-09-03 03:17:00,58.3,48.6,29.80,SE,136,0.0,3.0,70,0.00,,,0.00,0,Wunderground v.1.15,2013-09-03 09:17:00,
2013-09-03 03:22:00,58.2,48.5,29.80,SE,136,0.0,1.0,70,0.00,,,0.00,0,Wunderground v.1.15,2013-09-03 09:22:00,
2013-09-03 03:27:00,58.2,48.5,29.80,SE,136,0.0,1.0,70,0.00,,,0.00,0,Wunderground v.1.15,2013-09-03 09:27:00,
2013-09-03 03:32:00,58.1,48.7,29.80,SE,136,0.0,0.0,71,0.00,,,0.00,0,Wunderground v.1.15,2013-09-03 09:32:00,
2013-09-03 03:37:00,58.0,48.6,29.80,SE,136,0.0,0.0,71,0.00,,,0.00,0,Wunderground v.1.15,2013-09-03 09:37:00,
2013-09-03 03:42:00,57.8,48.8,29.80,SE,136,0.0,0.0,72,0.00,,,0.00,0,Wunderground v.1.15,2013-09-03 09:42:00,
2013-09-03 03:47:00,57.6,48.6,29.81,SE,136,0.0,0.0,72,0.00,,,0.00,0,Wunderground v.1.15,2013-09-03 09:47:00,
2013-09-03 03:52:00,57.4,48.4,29.81,SE,135,0.0,0.0,72,0.00,,,0.00,0,Wunderground v.1.15,2013-09-03 09:52:00,
2013-09-03 03:57:00,57.3,48.3,29.81,SE,136,0.0,0.0,72,0.00,,,0.00,0,Wunderground v.1.15,2013-09-03 09:57:00,
2013-09-03 04:02:00,57.3,48.3,29.80,SE,134,0.0,0.0,72,0.00,,,0.00,0,Wunderground v.1.15,2013-09-03 10:02:00,
2013-09-03 04:07:00,57.3,48.7,29.80,SE,136,0.0,0.0,73,0.00,,,0.00,0,Wunderground v.1.15,2013-09-03 10:07:00,
2013-09-03 04:12:00,57.4,48.8,29.80,SE,136,0.0,0.0,73,0.00,,,0.00,0,Wunderground v.1.15,2013-09-03 10:12:00,
2013-09-03 04:18:00,57.5,48.9,29.80,SE,136,0.0,0.0,73,0.00,,,0.00,0,Wunderground v.1.15,2013-09-03 10:18:00,
2013-09-03 04:22:00,57.6,48.6,29.80,SE,134,0.0,0.0,72,0.00,,,0.00,0,Wunderground v.1.15,2013-09-03 10:22:00,
2013-09-03 04:27:00,57.6,48.6,29.80,SE,136,0.0,0.0,72,0.00,,,0.00,0,Wunderground v.1.15,2013-09-03 10:27:00,
2013-09-03 04:32:00,57.6,48.6,29.81,SE,136,0.0,0.0,72,0.00,,,0.00,0,Wunderground v.1.15,2013-09-03 10:32:00,
2013-09-03 04:37:00,57.7,48.7,29.81,SE,135,0.0,0.0,72,0.00,,,0.00,0,Wunderground v.1.15,2013-09-03 10:37:00,
2013-09-03 04:42:00,57.8,48.8,29.81,SE,136,0.0,0.0,72,0.00,,,0.00,0,Wunderground v.1.15,2013-09-03 10:42:00,
2013-09-03 04:47:00,57.8,48.8,29.81,SE,136,0.0,0.0,72,0.00,,,0.00,0,Wunderground v.1.15,2013-09-03 10:47:00,
2013-09-03 04:52:00,57.7,48.4,29.81,SE,136,0.0,0.0,71,0.00,,,0.00,0,Wunderground v.1.15,2013-09-03 10:52:00,
2013-09-03 04:57:00,57.6,48.3,29.81,SE,136,0.0,0.0,71,0.00,,,0.00,0,Wunderground v.1.15,2013-09-03 10:57:00,
2013-09-03 05:02:00,57.6,49.0,29.80,SE,136,0.0,0.0,73,0.00,,,0.00,0,Wunderground v.1.15,2013-09-03 11:02:00,
2013-09-03 05:07:00,57.5,48.9,29.80,SE,136,0.0,0.0,73,0.00,,,0.00,0,Wunderground v.1.15,2013-09-03 11:07:00,
2013-09-03 05:12:00,57.2,49.0,29.80,SE,136,0.0,0.0,74,0.00,,,0.00,0,Wunderground v.1.15,2013-09-03 11:12:00,
2013-09-03 05:17:00,57.0,48.8,29.80,SE,136,0.0,0.0,74,0.00,,,0.00,0,Wunderground v.1.15,2013-09-03 11:17:00,
2013-09-03 05:22:00,56.7,48.9,29.80,SE,136,0.0,0.0,75,0.00,,,0.00,0,Wunderground v.1.15,2013-09-03 11:22:00,
2013-09-03 05:27:00,56.4,48.6,29.80,SE,136,0.0,0.0,75,0.00,,,0.00,0,Wunderground v.1.15,2013-09-03 11:27:00,
2013-09-03 05:32:00,56.1,48.3,29.80,SE,136,0.0,0.0,75,0.00,,,0.00,0,Wunderground v.1.15,2013-09-03 11:32:00,
2013-09-03 05:37:00,55.9,48.1,29.80,SE,136,0.0,0.0,75,0.00,,,0.00,0,Wunderground v.1.15,2013-09-03 11:37:00,
2013-09-03 05:42:00,55.8,48.3,29.80,SE,136,0.0,0.0,76,0.00,,,0.00,0,Wunderground v.1.15,2013-09-03 11:42:00,
2013-09-03 05:47:00,55.7,48.2,29.80,SE,136,0.0,1.0,76,0.00,,,0.00,0,Wunderground v.1.15,2013-09-03 11:47:00,
2013-09-03 05:52:00,55.5,48.1,29.80,SE,136,0.0,0.0,76,0.00,,,0.00,0,Wunderground v.1.15,2013-09-03 11:52:00,
2013-09-03 05:58:00,55.4,48.3,29.80,SE,136,0.0,0.0,77,0.00,,,0.00,0,Wunderground v.1.15,2013-09-03 11:58:00,
2013-09-03 06:03:00,54.7,46.6,29.80,SE,136,0.0,0.0,74,0.00,,,0.00,0,Wunderground v.1.15,2013-09-03 12:03:00,
2013-09-03 06:08:00,53.9,46.2,29.80,SE,136,0.0,0.0,75,0.00,,,0.00,0,Wunderground v.1.15,2013-09-03 12:08:00,
2013-09-03 06:13:00,53.2,45.5,29.80,SE,136,0.0,0.0,75,0.00,,,0.00,0,Wunderground v.1.15,2013-09-03 12:13:00,
2013-09-03 06:18:00,52.3,45.0,29.81,SE,136,0.0,0.0,76,0.00,,,0.00,0,Wunderground v.1.15,2013-09-03 12:18:00,
2013-09-03 06:23:00,51.9,44.9,29.81,SE,136,0.0,0.0,77,0.00,,,0.00,0,Wunderground v.1.15,2013-09-03 12:23:00,
2013-09-03 06:28:00,51.6,45.0,29.81,SE,135,0.0,0.0,78,0.00,,,0.00,0,Wunderground v.1.15,2013-09-03 12:28:00,
2013-09-03 06:33:00,51.4,45.1,29.82,SE,136,0.0,0.0,79,0.00,,,0.00,0,Wunderground v.1.15,2013-09-03 12:33:00,
2013-09-03 06:38:00,51.5,45.2,29.82,SE,136,0.0,0.0,79,0.00,,,0.00,0,Wunderground v.1.15,2013-09-03 12:38:00,
2013-09-03 06:43:00,51.5,45.2,29.82,SE,136,0.0,0.0,79,0.00,,,0.00,0,Wunderground v.1.15,2013-09-03 12:43:00,
2013-09-03 06:48:00,51.5,45.2,29.82,SE,136,0.0,0.0,79,0.00,,,0.00,0,Wunderground v.1.15,2013-09-03 12:48:00,
2013-09-03 06:53:00,51.5,45.2,29.82,SE,136,0.0,0.0,79,0.00,,,0.00,0,Wunderground v.1.15,2013-09-03 12:53:00,
2013-09-03 06:58:00,51.4,44.8,29.82,SE,136,0.0,0.0,78,0.00,,,0.00,7,Wunderground v.1.15,2013-09-03 12:58:00,
2013-09-03 07:03:00,51.0,44.4,29.82,SE,136,0.0,0.0,78,0.00,,,0.00,11,Wunderground v.1.15,2013-09-03 13:03:00,
2013-09-03 07:08:00,51.0,44.7,29.82,SE,136,0.0,0.0,79,0.00,,,0.00,16,Wunderground v.1.15,2013-09-03 13:08:00,
2013-09-03 07:13:00,51.0,45.0,29.82,SE,136,0.0,0.0,80,0.00,,,0.00,19,Wunderground v.1.15,2013-09-03 13:13:00,
2013-09-03 07:18:00,50.7,44.4,29.83,SE,136,0.0,0.0,79,0.00,,,0.00,25,Wunderground v.1.15,2013-09-03 13:18:00,
2013-09-03 07:23:00,50.8,44.9,29.83,SE,136,0.0,0.0,80,0.00,,,0.00,32,Wunderground v.1.15,2013-09-03 13:23:00,
2013-09-03 07:28:00,51.0,45.0,29.83,SE,136,0.0,0.0,80,0.00,,,0.00,42,Wunderground v.1.15,2013-09-03 13:28:00,
2013-09-03 07:33:00,51.2,45.6,29.83,SE,136,0.0,0.0,81,0.00,,,0.00,47,Wunderground v.1.15,2013-09-03 13:33:00,
2013-09-03 07:38:00,51.4,45.8,29.83,SE,136,0.0,0.0,81,0.00,,,0.00,72,Wunderground v.1.15,2013-09-03 13:38:00,
2013-09-03 07:43:00,51.8,46.2,29.83,SE,136,0.0,0.0,81,0.00,,,0.00,81,Wunderground v.1.15,2013-09-03 13:43:00,
2013-09-03 07:48:00,52.3,46.3,29.83,SE,136,0.0,0.0,80,0.00,,,0.00,95,Wunderground v.1.15,2013-09-03 13:48:00,
2013-09-03 07:53:00,52.8,46.8,29.83,SE,136,0.0,0.0,80,0.00,,,0.00,90,Wunderground v.1.15,2013-09-03 13:53:00,
2013-09-03 07:58:00,53.4,47.0,29.83,SE,136,0.0,0.0,79,0.00,,,0.00,88,Wunderground v.1.15,2013-09-03 13:58:00,
2013-09-03 08:03:00,54.4,47.7,29.83,SE,136,0.0,0.0,78,0.00,,,0.00,84,Wunderground v.1.15,2013-09-03 14:03:00,
2013-09-03 08:08:00,54.9,47.8,29.83,SE,136,0.0,0.0,77,0.00,,,0.00,118,Wunderground v.1.15,2013-09-03 14:08:00,
2013-09-03 08:13:00,55.3,48.2,29.83,SE,136,0.0,0.0,77,0.00,,,0.00,114,Wunderground v.1.15,2013-09-03 14:13:00,
2013-09-03 08:18:00,55.7,48.6,29.84,SE,136,0.0,0.0,77,0.00,,,0.00,125,Wunderground v.1.15,2013-09-03 14:18:00,
2013-09-03 08:24:00,56.1,49.0,29.84,SE,136,0.0,0.0,77,0.00,,,0.00,125,Wunderground v.1.15,2013-09-03 14:24:00,
2013-09-03 08:29:00,56.4,49.3,29.84,SE,136,0.0,0.0,77,0.00,,,0.00,116,Wunderground v.1.15,2013-09-03 14:29:00,
2013-09-03 08:34:00,56.7,49.2,29.83,SE,136,0.0,0.0,76,0.00,,,0.00,178,Wunderground v.1.15,2013-09-03 14:34:00,
2013-09-03 08:39:00,57.1,49.2,29.83,SE,136,0.0,0.0,75,0.00,,,0.00,225,Wunderground v.1.15,2013-09-03 14:39:00,
2013-09-03 08:44:00,57.8,49.2,29.83,SE,136,0.0,1.0,73,0.00,,,0.00,207,Wunderground v.1.15,2013-09-03 14:44:00,
2013-09-03 08:49:00,58.2,49.2,29.83,SE,136,0.0,1.0,72,0.00,,,0.00,156,Wunderground v.1.15,2013-09-03 14:49:00,
2013-09-03 08:54:00,58.6,48.8,29.83,SE,136,0.0,0.0,70,0.00,,,0.00,139,Wunderground v.1.15,2013-09-03 14:54:00,
2013-09-03 08:59:00,59.0,49.2,29.83,SE,136,0.0,0.0,70,0.00,,,0.00,141,Wunderground v.1.15,2013-09-03 14:59:00,
2013-09-03 09:04:00,59.0,48.8,29.83,SE,136,0.0,1.0,69,0.00,,,0.00,128,Wunderground v.1.15,2013-09-03 15:04:00,
2013-09-03 09:09:00,59.0,48.8,29.83,SE,136,0.0,1.0,69,0.00,,,0.00,114,Wunderground v.1.15,2013-09-03 15:09:00,
2013-09-03 09:14:00,59.0,48.8,29.83,SE,136,0.0,1.0,69,0.00,,,0.00,121,Wunderground v.1.15,2013-09-03 15:14:00,
2013-09-03 09:19:00,59.1,49.3,29.83,SE,136,0.0,1.0,70,0.00,,,0.00,123,Wunderground v.1.15,2013-09-03 15:19:00,
2013-09-03 09:24:00,59.2,49.0,29.83,SE,136,0.0,0.0,69,0.00,,,0.00,141,Wunderground v.1.15,2013-09-03 15:24:00,
2013-09-03 09:29:00,59.4,49.2,29.83,SE,136,0.0,0.0,69,0.00,,,0.00,185,Wunderground v.1.15,2013-09-03 15:29:00,
2013-09-03 09:34:00,59.7,49.1,29.84,SE,136,0.0,0.0,68,0.00,,,0.00,192,Wunderground v.1.15,2013-09-03 15:34:00,
2013-09-03 09:39:00,60.0,49.4,29.84,SE,134,0.0,0.0,68,0.00,,,0.00,192,Wunderground v.1.15,2013-09-03 15:39:00,
2013-09-03 09:44:00,60.4,49.4,29.84,SE,136,0.0,0.0,67,0.00,,,0.00,186,Wunderground v.1.15,2013-09-03 15:44:00,
2013-09-03 09:49:00,60.7,50.1,29.84,SE,135,0.0,0.0,68,0.00,,,0.00,165,Wunderground v.1.15,2013-09-03 15:49:00,
2013-09-03 09:54:00,61.0,50.0,29.84,SE,136,0.0,0.0,67,0.00,,,0.00,149,Wunderground v.1.15,2013-09-03 15:54:00,
2013-09-03 09:59:00,61.3,49.8,29.84,SE,136,0.0,0.0,66,0.00,,,0.00,151,Wunderground v.1.15,2013-09-03 15:59:00,
2013-09-03 10:04:00,61.6,50.1,29.85,SE,136,0.0,0.0,66,0.00,,,0.00,169,Wunderground v.1.15,2013-09-03 16:04:00,
2013-09-03 10:09:00,62.1,50.6,29.85,SE,136,0.0,0.0,66,0.00,,,0.00,167,Wunderground v.1.15,2013-09-03 16:09:00,
2013-09-03 10:14:00,62.5,50.6,29.85,SE,136,0.0,0.0,65,0.00,,,0.00,144,Wunderground v.1.15,2013-09-03 16:14:00,
2013-09-03 10:19:00,62.9,50.1,29.85,SE,136,0.0,0.0,63,0.00,,,0.00,142,Wunderground v.1.15,2013-09-03 16:19:00,
2013-09-03 10:24:00,63.3,50.1,29.85,SE,136,0.0,0.0,62,0.00,,,0.00,158,Wunderground v.1.15,2013-09-03 16:24:00,
2013-09-03 10:29:00,63.7,50.4,29.85,SE,136,0.0,0.0,62,0.00,,,0.00,193,Wunderground v.1.15,2013-09-03 16:29:00,
2013-09-03 10:34:00,64.1,51.2,29.85,SE,136,0.0,0.0,63,0.00,,,0.00,214,Wunderground v.1.15,2013-09-03 16:34:00,
2013-09-03 10:39:00,64.4,50.2,29.85,SE,136,0.0,0.0,60,0.00,,,0.00,213,Wunderground v.1.15,2013-09-03 16:39:00,
2013-09-03 10:44:00,64.5,50.3,29.85,SE,136,0.0,0.0,60,0.00,,,0.00,225,Wunderground v.1.15,2013-09-03 16:44:00,
2013-09-03 10:49:00,64.8,51.5,29.85,SE,136,0.0,0.0,62,0.00,,,0.00,255,Wunderground v.1.15,2013-09-03 16:49:00,
2013-09-03 10:54:00,65.2,51.0,29.85,SE,136,0.0,0.0,60,0.00,,,0.00,262,Wunderground v.1.15,2013-09-03 16:54:00,
2013-09-03 10:59:00,65.7,51.0,29.85,SE,136,0.0,0.0,59,0.00,,,0.00,272,Wunderground v.1.15,2013-09-03 16:59:00,
2013-09-03 11:04:00,66.1,50.4,29.85,SE,136,0.0,0.0,57,0.00,,,0.00,290,Wunderground v.1.15,2013-09-03 17:04:00,
2013-09-03 11:09:00,66.5,50.8,29.85,SE,136,0.0,1.0,57,0.00,,,0.00,269,Wunderground v.1.15,2013-09-03 17:09:00,
2013-09-03 11:14:00,67.0,50.8,29.85,SE,136,0.0,0.0,56,0.00,,,0.00,290,Wunderground v.1.15,2013-09-03 17:14:00,
2013-09-03 11:19:00,67.3,51.1,29.84,SE,136,0.0,0.0,56,0.00,,,0.00,316,Wunderground v.1.15,2013-09-03 17:19:00,
2013-09-03 11:24:00,67.9,51.6,29.84,SE,136,0.0,0.0,56,0.00,,,0.00,345,Wunderground v.1.15,2013-09-03 17:24:00,
2013-09-03 11:29:00,68.7,51.4,29.84,SE,136,0.0,0.0,54,0.00,,,0.00,476,Wunderground v.1.15,2013-09-03 17:29:00,
2013-09-03 11:34:00,69.6,50.7,29.84,SE,136,0.0,0.0,51,0.00,,,0.00,404,Wunderground v.1.15,2013-09-03 17:34:00,
2013-09-03 11:39:00,70.0,50.0,29.84,SE,136,0.0,0.0,49,0.00,,,0.00,573,Wunderground v.1.15,2013-09-03 17:39:00,
2013-09-03 11:44:00,70.6,51.1,29.84,SE,136,0.0,0.0,50,0.00,,,0.00,842,Wunderground v.1.15,2013-09-03 17:44:00,
2013-09-03 11:49:00,72.3,50.9,29.84,SE,136,0.0,0.0,47,0.00,,,0.00,729,Wunderground v.1.15,2013-09-03 17:49:00,
2013-09-03 11:54:00,73.3,52.4,29.84,SE,135,0.0,0.0,48,0.00,,,0.00,557,Wunderground v.1.15,2013-09-03 17:54:00,
2013-09-03 11:59:00,73.6,50.3,29.84,SE,136,0.0,0.0,44,0.00,,,0.00,461,Wunderground v.1.15,2013-09-03 17:59:00,
2013-09-03 12:04:00,73.9,51.2,29.84,SE,136,0.0,0.0,45,0.00,,,0.00,376,Wunderground v.1.15,2013-09-03 18:04:00,
2013-09-03 12:09:00,74.0,50.7,29.84,SE,135,0.0,1.0,44,0.00,,,0.00,555,Wunderground v.1.15,2013-09-03 18:09:00,
2013-09-03 12:14:00,74.6,50.6,29.84,SE,136,0.0,4.0,43,0.00,,,0.00,489,Wunderground v.1.15,2013-09-03 18:14:00,
2013-09-03 12:19:00,75.1,50.4,29.83,SE,136,0.0,4.0,42,0.00,,,0.00,445,Wunderground v.1.15,2013-09-03 18:19:00,
2013-09-03 12:24:00,75.7,51.0,29.83,SE,136,0.0,0.0,42,0.00,,,0.00,475,Wunderground v.1.15,2013-09-03 18:24:00,
2013-09-03 12:29:00,76.2,51.4,29.83,SE,136,0.0,1.0,42,0.00,,,0.00,492,Wunderground v.1.15,2013-09-03 18:29:00,
2013-09-03 12:34:00,76.4,50.3,29.83,SE,136,0.0,1.0,40,0.00,,,0.00,541,Wunderground v.1.15,2013-09-03 18:34:00,
2013-09-03 12:39:00,76.4,50.3,29.83,SE,136,0.0,1.0,40,0.00,,,0.00,608,Wunderground v.1.15,2013-09-03 18:39:00,
2013-09-03 12:44:00,76.6,51.1,29.83,SE,136,0.0,1.0,41,0.00,,,0.00,809,Wunderground v.1.15,2013-09-03 18:44:00,
2013-09-03 12:49:00,76.9,50.7,29.82,SE,136,0.0,1.0,40,0.00,,,0.00,809,Wunderground v.1.15,2013-09-03 18:49:00,
2013-09-03 12:54:00,77.0,50.1,29.82,SE,136,0.0,0.0,39,0.00,,,0.00,522,Wunderground v.1.15,2013-09-03 18:54:00,
2013-09-03 12:59:00,77.7,50.1,29.82,SE,134,0.0,1.0,38,0.00,,,0.00,735,Wunderground v.1.15,2013-09-03 18:59:00,
2013-09-03 13:04:00,78.3,52.0,29.81,SE,136,0.0,0.0,40,0.00,,,0.00,598,Wunderground v.1.15,2013-09-03 19:04:00,
2013-09-03 13:09:00,79.3,52.2,29.81,SE,136,0.0,2.0,39,0.00,,,0.00,747,Wunderground v.1.15,2013-09-03 19:09:00,
2013-09-03 13:14:00,80.0,52.1,29.81,SE,136,0.0,1.0,38,0.00,,,0.00,707,Wunderground v.1.15,2013-09-03 19:14:00,
2013-09-03 13:20:00,80.3,52.4,29.81,SE,136,0.0,1.0,38,0.00,,,0.00,635,Wunderground v.1.15,2013-09-03 19:20:00,
2013-09-03 13:25:00,80.6,51.9,29.81,SE,134,0.0,1.0,37,0.00,,,0.00,722,Wunderground v.1.15,2013-09-03 19:25:00,
2013-09-03 13:30:00,81.5,52.0,29.81,SE,136,0.0,1.0,36,0.00,,,0.00,798,Wunderground v.1.15,2013-09-03 19:30:00,
2013-09-03 13:35:00,82.1,50.1,29.80,SE,136,0.0,1.0,33,0.00,,,0.00,814,Wunderground v.1.15,2013-09-03 19:35:00,
2013-09-03 13:40:00,82.3,51.9,29.80,SE,136,0.0,2.0,35,0.00,,,0.00,768,Wunderground v.1.15,2013-09-03 19:40:00,
2013-09-03 13:45:00,82.0,50.9,29.80,SE,136,0.0,1.0,34,0.00,,,0.00,308,Wunderground v.1.15,2013-09-03 19:45:00,
2013-09-03 13:50:00,81.4,51.9,29.79,SE,136,0.0,1.0,36,0.00,,,0.00,520,Wunderground v.1.15,2013-09-03 19:50:00,
2013-09-03 13:55:00,81.7,51.4,29.79,SE,135,0.0,1.0,35,0.00,,,0.00,670,Wunderground v.1.15,2013-09-03 19:55:00,
2013-09-03 14:00:00,82.6,52.2,29.79,SE,135,0.0,1.0,35,0.00,,,0.00,842,Wunderground v.1.15,2013-09-03 20:00:00,
2013-09-03 14:05:00,83.2,51.1,29.79,NNW,341,5.0,8.0,33,0.00,,,0.00,759,Wunderground v.1.15,2013-09-03 20:05:00,
2013-09-03 14:10:00,82.6,51.4,29.79,NNW,344,0.0,8.0,34,0.00,,,0.00,724,Wunderground v.1.15,2013-09-03 20:10:00,
2013-09-03 14:15:00,83.0,50.9,29.79,NNW,343,0.0,2.0,33,0.00,,,0.00,719,Wunderground v.1.15,2013-09-03 20:15:00,
2013-09-03 14:20:00,84.1,51.9,29.78,North,360,0.0,2.0,33,0.00,,,0.00,751,Wunderground v.1.15,2013-09-03 20:20:00,
2013-09-03 14:25:00,84.7,51.6,29.78,NNE,18,0.0,5.0,32,0.00,,,0.00,448,Wunderground v.1.15,2013-09-03 20:25:00,
2013-09-03 14:30:00,84.9,52.6,29.78,NNE,21,0.0,5.0,33,0.00,,,0.00,663,Wunderground v.1.15,2013-09-03 20:30:00,
2013-09-03 14:35:00,84.7,52.4,29.78,NNE,13,2.0,5.0,33,0.00,,,0.00,673,Wunderground v.1.15,2013-09-03 20:35:00,
2013-09-03 14:40:00,84.9,52.6,29.78,NNE,22,8.0,8.0,33,0.00,,,0.00,872,Wunderground v.1.15,2013-09-03 20:40:00,
2013-09-03 14:45:00,85.7,52.4,29.78,NE,38,2.0,10.0,32,0.00,,,0.00,977,Wunderground v.1.15,2013-09-03 20:45:00,
2013-09-03 14:50:00,86.1,51.9,29.77,NNE,32,6.0,6.0,31,0.00,,,0.00,951,Wunderground v.1.15,2013-09-03 20:50:00,
2013-09-03 14:55:00,85.9,51.8,29.77,North,9,4.0,10.0,31,0.00,,,0.00,717,Wunderground v.1.15,2013-09-03 20:55:00,
2013-09-03 15:00:00,85.9,51.8,29.77,NNE,13,2.0,3.0,31,0.00,,,0.00,355,Wunderground v.1.15,2013-09-03 21:00:00,
2013-09-03 15:05:00,85.0,51.8,29.77,NNE,15,2.0,4.0,32,0.00,,,0.00,397,Wunderground v.1.15,2013-09-03 21:05:00,
2013-09-03 15:10:00,85.0,51.8,29.77,North,11,7.0,7.0,32,0.00,,,0.00,812,Wunderground v.1.15,2013-09-03 21:10:00,
2013-09-03 15:15:00,85.6,52.4,29.76,North,355,1.0,10.0,32,0.00,,,0.00,761,Wunderground v.1.15,2013-09-03 21:15:00,
2013-09-03 15:20:00,86.1,53.6,29.76,NNE,18,5.0,5.0,33,0.00,,,0.00,687,Wunderground v.1.15,2013-09-03 21:20:00,
2013-09-03 15:25:00,85.8,52.5,29.76,NNE,32,4.0,10.0,32,0.00,,,0.00,381,Wunderground v.1.15,2013-09-03 21:25:00,
2013-09-03 15:30:00,84.6,52.3,29.76,NNE,17,5.0,8.0,33,0.00,,,0.00,239,Wunderground v.1.15,2013-09-03 21:30:00,
2013-09-03 15:35:00,83.9,52.5,29.76,NNE,22,6.0,9.0,34,0.00,,,0.00,288,Wunderground v.1.15,2013-09-03 21:35:00,
2013-09-03 15:40:00,83.1,51.8,29.76,NNE,28,1.0,4.0,34,0.00,,,0.00,265,Wunderground v.1.15,2013-09-03 21:40:00,
2013-09-03 15:45:00,82.9,52.4,29.75,NNE,22,0.0,5.0,35,0.00,,,0.00,274,Wunderground v.1.15,2013-09-03 21:45:00,
2013-09-03 15:50:00,83.0,52.5,29.75,NNE,20,0.0,1.0,35,0.00,,,0.00,276,Wunderground v.1.15,2013-09-03 21:50:00,
2013-09-03 15:55:00,83.1,53.4,29.75,North,355,0.0,6.0,36,0.00,,,0.00,251,Wunderground v.1.15,2013-09-03 21:55:00,
2013-09-03 16:00:00,83.0,52.5,29.74,NNW,336,3.0,4.0,35,0.00,,,0.00,186,Wunderground v.1.15,2013-09-03 22:00:00,
2013-09-03 16:05:00,82.2,51.8,29.74,North,349,0.0,6.0,35,0.00,,,0.00,111,Wunderground v.1.15,2013-09-03 22:05:00,
2013-09-03 16:10:00,81.9,51.6,29.74,North,355,0.0,1.0,35,0.00,,,0.00,88,Wunderground v.1.15,2013-09-03 22:10:00,
2013-09-03 16:15:00,81.6,52.1,29.74,North,360,0.0,5.0,36,0.00,,,0.00,76,Wunderground v.1.15,2013-09-03 22:15:00,
2013-09-03 16:20:00,81.3,53.3,29.74,North,355,2.0,2.0,38,0.00,,,0.00,65,Wunderground v.1.15,2013-09-03 22:20:00,
2013-09-03 16:25:00,80.7,52.7,29.74,North,355,0.0,2.0,38,0.00,,,0.00,54,Wunderground v.1.15,2013-09-03 22:25:00,
2013-09-03 16:30:00,80.1,52.2,29.75,North,355,0.0,0.0,38,0.00,,,0.00,46,Wunderground v.1.15,2013-09-03 22:30:00,
2013-09-03 16:35:00,79.8,51.9,29.75,NW,317,2.0,11.0,38,0.00,,,0.00,46,Wunderground v.1.15,2013-09-03 22:35:00,
2013-09-03 16:40:00,79.8,51.2,29.75,NW,308,12.0,12.0,37,0.00,,,0.00,60,Wunderground v.1.15,2013-09-03 22:40:00,
2013-09-03 16:45:00,79.7,51.1,29.76,WNW,295,16.0,24.0,37,0.00,,,0.00,84,Wunderground v.1.15,2013-09-03 22:45:00,
2013-09-03 16:50:00,78.9,52.5,29.76,WSW,253,16.0,18.0,40,0.00,,,0.00,88,Wunderground v.1.15,2013-09-03 22:50:00,
2013-09-03 16:55:00,77.9,52.3,29.76,NW,304,17.0,25.0,41,0.00,,,0.00,91,Wunderground v.1.15,2013-09-03 22:55:00,
2013-09-03 17:00:00,76.7,53.1,29.76,West,281,16.0,23.0,44,0.00,,,0.00,104,Wunderground v.1.15,2013-09-03 23:00:00,
2013-09-03 17:05:00,75.9,53.0,29.76,WNW,298,22.0,26.0,45,0.00,,,0.00,153,Wunderground v.1.15,2013-09-03 23:05:00,
2013-09-03 17:10:00,75.8,52.9,29.76,NW,315,22.0,25.0,45,0.00,,,0.00,172,Wunderground v.1.15,2013-09-03 23:10:00,
2013-09-03 17:15:00,75.3,53.1,29.77,NW,325,16.0,27.0,46,0.00,,,0.00,204,Wunderground v.1.15,2013-09-03 23:15:00,
2013-09-03 17:20:00,75.1,52.9,29.77,NW,322,20.0,20.0,46,0.00,,,0.00,207,Wunderground v.1.15,2013-09-03 23:20:00,
2013-09-03 17:25:00,74.4,53.4,29.77,North,355,14.0,27.0,48,0.00,,,0.00,190,Wunderground v.1.15,2013-09-03 23:25:00,
2013-09-03 17:30:00,73.6,53.8,29.78,NW,315,15.0,18.0,50,0.00,,,0.00,172,Wunderground v.1.15,2013-09-03 23:30:00,
2013-09-03 17:35:00,73.0,54.3,29.78,WNW,291,13.0,28.0,52,0.00,,,0.00,163,Wunderground v.1.15,2013-09-03 23:35:00,
2013-09-03 17:40:00,72.5,54.4,29.78,WNW,302,17.0,17.0,53,0.00,,,0.00,144,Wunderground v.1.15,2013-09-03 23:40:00,
2013-09-03 17:45:00,72.1,54.5,29.79,NNW,348,16.0,27.0,54,0.00,,,0.00,116,Wunderground v.1.15,2013-09-03 23:45:00,
2013-09-03 17:50:00,71.8,54.3,29.79,NW,311,10.0,14.0,54,0.00,,,0.00,76,Wunderground v.1.15,2013-09-03 23:50:00,
2013-09-03 17:55:00,71.4,54.4,29.79,NW,315,8.0,19.0,55,0.00,,,0.00,54,Wunderground v.1.15,2013-09-03 23:55:00,
2013-09-03 18:00:00,71.3,54.8,29.81,North,11,5.0,11.0,56,0.00,,,0.00,39,Wunderground v.1.15,2013-09-04 00:00:00,
2013-09-03 18:05:00,71.0,55.0,29.81,NE,52,2.0,11.0,57,0.00,,,0.00,26,Wunderground v.1.15,2013-09-04 00:05:00,
2013-09-03 18:10:00,70.8,54.8,29.81,NNE,32,6.0,6.0,57,0.00,,,0.00,21,Wunderground v.1.15,2013-09-04 00:10:00,
2013-09-03 18:15:00,70.5,55.0,29.83,NNE,13,0.0,7.0,58,0.00,,,0.00,16,Wunderground v.1.15,2013-09-04 00:15:00,
2013-09-03 18:20:00,70.4,54.9,29.83,NNE,18,0.0,2.0,58,0.00,,,0.00,12,Wunderground v.1.15,2013-09-04 00:20:00,
2013-09-03 18:25:00,70.4,54.4,29.83,North,355,6.0,8.0,57,0.00,,,0.00,9,Wunderground v.1.15,2013-09-04 00:25:00,
2013-09-03 18:30:00,70.4,55.4,29.86,NW,318,3.0,9.0,59,0.00,,,0.00,7,Wunderground v.1.15,2013-09-04 00:30:00,
2013-09-03 18:35:00,69.2,56.9,29.86,NNW,329,9.0,15.0,65,0.00,,,0.00,9,Wunderground v.1.15,2013-09-04 00:35:00,
2013-09-03 18:40:00,67.7,56.8,29.86,WNW,295,5.0,9.0,68,0.18,,,0.02,9,Wunderground v.1.15,2013-09-04 00:40:00,
2013-09-03 18:45:00,67.2,57.9,29.85,NW,311,4.0,9.0,72,0.11,,,0.02,9,Wunderground v.1.15,2013-09-04 00:45:00,
2013-09-03 18:50:00,66.4,58.2,29.85,WNW,288,1.0,5.0,75,0.08,,,0.03,11,Wunderground v.1.15,2013-09-04 00:50:00,
2013-09-03 18:55:00,65.7,58.3,29.85,WNW,283,0.0,5.0,77,0.12,,,0.04,12,Wunderground v.1.15,2013-09-04 00:55:00,
2013-09-03 19:00:00,65.2,58.5,29.86,WNW,284,0.0,0.0,79,0.09,,,0.05,12,Wunderground v.1.15,2013-09-04 01:00:00,
2013-09-03 19:05:00,64.9,58.9,29.86,WNW,284,0.0,0.0,81,0.07,,,0.05,11,Wunderground v.1.15,2013-09-04 01:05:00,
2013-09-03 19:10:00,64.8,59.2,29.86,WNW,284,0.0,0.0,82,0.04,,,0.05,9,Wunderground v.1.15,2013-09-04 01:10:00,
2013-09-03 19:15:00,64.7,59.8,29.86,NNE,30,0.0,2.0,84,0.04,,,0.06,7,Wunderground v.1.15,2013-09-04 01:15:00,
2013-09-03 19:20:00,64.3,59.4,29.86,NNE,30,0.0,0.0,84,0.04,,,0.06,7,Wunderground v.1.15,2013-09-04 01:20:00,
2013-09-03 19:25:00,64.0,59.4,29.86,NE,40,0.0,3.0,85,0.05,,,0.07,7,Wunderground v.1.15,2013-09-04 01:25:00,
2013-09-03 19:30:00,63.6,59.0,29.86,NE,51,0.0,1.0,85,0.05,,,0.07,7,Wunderground v.1.15,2013-09-04 01:30:00,
2013-09-03 19:35:00,63.3,59.0,29.86,NE,51,0.0,4.0,86,0.05,,,0.07,7,Wunderground v.1.15,2013-09-04 01:35:00,
2013-09-03 19:40:00,63.1,58.8,29.86,NE,51,0.0,0.0,86,0.00,,,0.07,5,Wunderground v.1.15,2013-09-04 01:40:00,
2013-09-03 19:45:00,62.9,58.6,29.86,NE,51,0.0,0.0,86,0.00,,,0.07,5,Wunderground v.1.15,2013-09-04 01:45:00,
2013-09-03 19:50:00,62.8,58.9,29.86,NE,51,0.0,0.0,87,0.00,,,0.07,0,Wunderground v.1.15,2013-09-04 01:50:00,
2013-09-03 19:55:00,62.8,58.9,29.86,NE,51,0.0,0.0,87,0.00,,,0.07,0,Wunderground v.1.15,2013-09-04 01:55:00,
2013-09-03 20:00:00,62.7,58.8,29.86,NE,51,0.0,0.0,87,0.00,,,0.07,0,Wunderground v.1.15,2013-09-04 02:00:00,
2013-09-03 20:05:00,62.7,58.8,29.86,NE,51,0.0,0.0,87,0.00,,,0.07,0,Wunderground v.1.15,2013-09-04 02:05:00,
2013-09-03 20:10:00,62.7,58.8,29.86,NE,51,0.0,0.0,87,0.00,,,0.07,0,Wunderground v.1.15,2013-09-04 02:10:00,
2013-09-03 20:15:00,62.6,58.7,29.87,NE,51,0.0,0.0,87,0.00,,,0.07,0,Wunderground v.1.15,2013-09-04 02:15:00,
2013-09-03 20:20:00,62.5,58.6,29.87,NE,45,0.0,0.0,87,0.00,,,0.07,0,Wunderground v.1.15,2013-09-04 02:20:00,
2013-09-03 20:25:00,62.2,58.6,29.87,NE,45,0.0,3.0,88,0.00,,,0.07,0,Wunderground v.1.15,2013-09-04 02:25:00,
2013-09-03 20:30:00,62.2,58.6,29.88,NE,44,0.0,0.0,88,0.00,,,0.07,0,Wunderground v.1.15,2013-09-04 02:30:00,
2013-09-03 20:35:00,62.1,58.5,29.88,NE,45,0.0,0.0,88,0.00,,,0.07,0,Wunderground v.1.15,2013-09-04 02:35:00,
2013-09-03 20:40:00,62.1,58.5,29.88,NE,45,0.0,0.0,88,0.00,,,0.07,0,Wunderground v.1.15,2013-09-04 02:40:00,
2013-09-03 20:45:00,62.1,58.5,29.88,NE,45,0.0,0.0,88,0.00,,,0.07,0,Wunderground v.1.15,2013-09-04 02:45:00,
2013-09-03 20:50:00,62.1,58.5,29.88,NE,45,0.0,0.0,88,0.00,,,0.08,0,Wunderground v.1.15,2013-09-04 02:50:00,
2013-09-03 20:55:00,62.3,58.7,29.88,NE,45,0.0,0.0,88,0.00,,,0.08,0,Wunderground v.1.15,2013-09-04 02:55:00,
2013-09-03 21:00:00,62.4,58.8,29.89,NE,45,0.0,0.0,88,0.00,,,0.08,0,Wunderground v.1.15,2013-09-04 03:00:00,
2013-09-03 21:05:00,62.5,58.9,29.89,NE,45,0.0,0.0,88,0.00,,,0.08,0,Wunderground v.1.15,2013-09-04 03:05:00,
2013-09-03 21:10:00,62.5,59.2,29.89,NE,45,0.0,0.0,89,0.00,,,0.08,0,Wunderground v.1.15,2013-09-04 03:10:00,
2013-09-03 21:15:00,62.5,59.2,29.89,NE,45,0.0,0.0,89,0.00,,,0.08,0,Wunderground v.1.15,2013-09-04 03:15:00,
2013-09-03 21:20:00,62.5,59.2,29.89,NE,45,0.0,0.0,89,0.00,,,0.08,0,Wunderground v.1.15,2013-09-04 03:20:00,
2013-09-03 21:25:00,62.4,59.1,29.89,NE,45,0.0,0.0,89,0.00,,,0.08,0,Wunderground v.1.15,2013-09-04 03:25:00,
2013-09-03 21:30:00,62.4,59.1,29.90,NE,45,0.0,0.0,89,0.00,,,0.08,0,Wunderground v.1.15,2013-09-04 03:30:00,
2013-09-03 21:35:00,62.3,59.0,29.90,NE,45,0.0,0.0,89,0.00,,,0.08,0,Wunderground v.1.15,2013-09-04 03:35:00,
2013-09-03 21:40:00,62.3,59.0,29.90,East,83,0.0,0.0,89,0.00,,,0.08,0,Wunderground v.1.15,2013-09-04 03:40:00,
2013-09-03 21:45:00,62.2,58.9,29.90,East,84,0.0,0.0,89,0.00,,,0.08,0,Wunderground v.1.15,2013-09-04 03:45:00,
2013-09-03 21:50:00,62.1,58.8,29.90,East,84,0.0,0.0,89,0.00,,,0.08,0,Wunderground v.1.15,2013-09-04 03:50:00,
2013-09-03 21:55:00,62.0,58.7,29.90,East,84,0.0,0.0,89,0.00,,,0.08,0,Wunderground v.1.15,2013-09-04 03:55:00,
2013-09-03 22:00:00,61.9,58.6,29.90,East,84,0.0,0.0,89,0.00,,,0.08,0,Wunderground v.1.15,2013-09-04 04:00:00,
2013-09-03 22:01:00,61.9,58.6,29.90,East,84,0.0,0.0,89,0.00,,,0.08,0,Wunderground v.1.15,2013-09-04 04:01:00,
2013-09-03 22:02:00,61.9,58.6,29.90,East,84,0.0,0.0,89,0.00,,,0.08,0,Wunderground v.1.15,2013-09-04 04:02:00,
2013-09-03 22:07:00,61.8,58.5,29.90,East,84,0.0,0.0,89,0.00,,,0.08,0,Wunderground v.1.15,2013-09-04 04:07:00,
2013-09-03 22:12:00,61.8,58.5,29.90,East,84,0.0,0.0,89,0.00,,,0.08,0,Wunderground v.1.15,2013-09-04 04:12:00,
2013-09-03 22:17:00,61.8,58.5,29.90,East,84,0.0,0.0,89,0.00,,,0.08,0,Wunderground v.1.15,2013-09-04 04:17:00,
2013-09-03 22:22:00,61.9,58.6,29.90,East,84,0.0,0.0,89,0.00,,,0.08,0,Wunderground v.1.15,2013-09-04 04:22:00,
2013-09-03 22:27:00,61.9,58.6,29.90,East,84,0.0,0.0,89,0.00,,,0.08,0,Wunderground v.1.15,2013-09-04 04:27:00,
2013-09-03 22:32:00,61.9,58.6,29.90,East,84,0.0,0.0,89,0.00,,,0.08,0,Wunderground v.1.15,2013-09-04 04:32:00,
2013-09-03 22:37:00,61.9,58.6,29.90,East,84,0.0,0.0,89,0.00,,,0.08,0,Wunderground v.1.15,2013-09-04 04:37:00,
2013-09-03 22:42:00,61.8,58.5,29.90,East,84,0.0,0.0,89,0.00,,,0.08,0,Wunderground v.1.15,2013-09-04 04:42:00,
2013-09-03 22:47:00,61.9,58.6,29.90,East,84,0.0,0.0,89,0.00,,,0.08,0,Wunderground v.1.15,2013-09-04 04:47:00,
2013-09-03 22:52:00,61.7,58.4,29.90,East,84,0.0,0.0,89,0.00,,,0.08,0,Wunderground v.1.15,2013-09-04 04:52:00,
2013-09-03 22:57:00,61.7,58.4,29.90,East,84,0.0,0.0,89,0.00,,,0.08,0,Wunderground v.1.15,2013-09-04 04:57:00,
2013-09-03 23:02:00,61.7,58.7,29.90,East,84,0.0,0.0,90,0.00,,,0.08,0,Wunderground v.1.15,2013-09-04 05:02:00,
2013-09-03 23:07:00,61.7,58.4,29.90,East,90,0.0,0.0,89,0.00,,,0.08,0,Wunderground v.1.15,2013-09-04 05:07:00,
2013-09-03 23:12:00,61.6,58.3,29.90,ESE,105,2.0,4.0,89,0.00,,,0.08,0,Wunderground v.1.15,2013-09-04 05:12:00,
2013-09-03 23:17:00,61.5,58.2,29.89,ESE,107,3.0,6.0,89,0.00,,,0.08,0,Wunderground v.1.15,2013-09-04 05:17:00,
2013-09-03 23:22:00,61.4,58.1,29.89,SE,132,0.0,4.0,89,0.00,,,0.08,0,Wunderground v.1.15,2013-09-04 05:22:00,
2013-09-03 23:27:00,61.2,58.2,29.89,SE,135,0.0,4.0,90,0.00,,,0.08,0,Wunderground v.1.15,2013-09-04 05:27:00,
2013-09-03 23:32:00,61.1,58.1,29.89,SSE,160,0.0,2.0,90,0.00,,,0.08,0,Wunderground v.1.15,2013-09-04 05:32:00,
2013-09-03 23:37:00,61.1,57.8,29.89,SSE,159,0.0,2.0,89,0.00,,,0.08,0,Wunderground v.1.15,2013-09-04 05:37:00,
2013-09-03 23:42:00,61.0,57.7,29.89,SSE,159,0.0,0.0,89,0.00,,,0.08,0,Wunderground v.1.15,2013-09-04 05:42:00,
2013-09-03 23:47:00,60.9,57.6,29.89,SSE,160,0.0,0.0,89,0.00,,,0.08,0,Wunderground v.1.15,2013-09-04 05:47:00,
2013-09-03 23:52:00,60.8,57.8,29.89,SSE,157,0.0,8.0,90,0.00,,,0.08,0,Wunderground v.1.15,2013-09-04 05:52:00,
2013-09-03 23:57:00,60.9,57.9,29.89,SSE,155,0.0,8.0,90,0.00,,,0.08,0,Wunderground v.1.15,2013-09-04 05:57:00,